AFL2602 UUOO-UUBW
Flight info
| Callsign | AFL2602 |
|---|---|
| Flight time | 1h 7m |
| Altitude | 16000 |
| Route | UUOO OKLOT GIGDO EKTUT OLOPI UUBW |
| Aircraft | AN24/M-SG/L |
Departure
| Time | 2026-04-29 13:31 |
|---|---|
| Airport | Voronezh International Airport (UUOO) |
Arrival
| Time | 2026-04-29 14:39 |
|---|---|
| Airport | Zhukovsky International Airport (UUBW) |
| Time | Latitude | Longitude | Altitude | Speed | Heading |
|---|---|---|---|---|---|
| 2026-04-29 13:13 | 51.81210 | 39.22712 | 525 ft | 0 kts | 40° |
| 2026-04-29 13:23 | 51.81226 | 39.22735 | 525 ft | 3 kts | 40° |
| 2026-04-29 13:24 | 51.81250 | 39.22768 | 525 ft | 4 kts | 47° |
| 2026-04-29 13:24 | 51.81261 | 39.22809 | 525 ft | 4 kts | 85° |
| 2026-04-29 13:24 | 51.81255 | 39.22844 | 525 ft | 4 kts | 119° |
| 2026-04-29 13:24 | 51.81231 | 39.22891 | 525 ft | 6 kts | 132° |
| 2026-04-29 13:25 | 51.81193 | 39.22956 | 525 ft | 8 kts | 133° |
| 2026-04-29 13:25 | 51.81093 | 39.23134 | 525 ft | 10 kts | 131° |
| 2026-04-29 13:25 | 51.81043 | 39.23225 | 525 ft | 10 kts | 131° |
| 2026-04-29 13:26 | 51.81000 | 39.23303 | 525 ft | 7 kts | 131° |
| 2026-04-29 13:26 | 51.80966 | 39.23367 | 525 ft | 4 kts | 126° |
| 2026-04-29 13:26 | 51.80944 | 39.23426 | 525 ft | 3 kts | 117° |
| 2026-04-29 13:26 | 51.80927 | 39.23485 | 525 ft | 8 kts | 115° |
| 2026-04-29 13:27 | 51.80892 | 39.23585 | 525 ft | 11 kts | 127° |
| 2026-04-29 13:27 | 51.80845 | 39.23674 | 525 ft | 8 kts | 123° |
| 2026-04-29 13:27 | 51.80839 | 39.23737 | 525 ft | 7 kts | 79° |
| 2026-04-29 13:27 | 51.80850 | 39.23789 | 525 ft | 1 kts | 70° |
| 2026-04-29 13:28 | 51.80850 | 39.23791 | 525 ft | 0 kts | 70° |
| 2026-04-29 13:28 | 51.80857 | 39.23822 | 525 ft | 4 kts | 70° |
| 2026-04-29 13:28 | 51.80861 | 39.23840 | 525 ft | 5 kts | 70° |
| 2026-04-29 13:29 | 51.80878 | 39.23916 | 525 ft | 5 kts | 71° |
| 2026-04-29 13:29 | 51.80904 | 39.23986 | 525 ft | 5 kts | 29° |
| 2026-04-29 13:29 | 51.80948 | 39.23988 | 525 ft | 5 kts | 337° |
| 2026-04-29 13:29 | 51.80982 | 39.23939 | 525 ft | 6 kts | 309° |
| 2026-04-29 13:30 | 51.80991 | 39.23921 | 525 ft | 0 kts | 309° |
| 2026-04-29 13:30 | 51.81028 | 39.23851 | 525 ft | 37 kts | 310° |
| 2026-04-29 13:31 | 51.81372 | 39.23210 | 525 ft | 107 kts | 310° |
| 2026-04-29 13:31 | 51.81972 | 39.22126 | 570 ft | 145 kts | 313° |
| 2026-04-29 13:31 | 51.82674 | 39.20929 | 968 ft | 145 kts | 315° |
| 2026-04-29 13:31 | 51.83392 | 39.19795 | 1266 ft | 154 kts | 316° |
| 2026-04-29 13:32 | 51.84178 | 39.18504 | 1516 ft | 164 kts | 313° |
| 2026-04-29 13:32 | 51.84998 | 39.17104 | 1749 ft | 175 kts | 311° |
| 2026-04-29 13:32 | 51.85778 | 39.15534 | 1960 ft | 186 kts | 308° |
| 2026-04-29 13:32 | 51.86246 | 39.14570 | 2096 ft | 191 kts | 308° |
| 2026-04-29 13:33 | 51.87056 | 39.12838 | 2378 ft | 196 kts | 307° |
| 2026-04-29 13:33 | 51.87863 | 39.11079 | 2749 ft | 195 kts | 307° |
| 2026-04-29 13:33 | 51.88698 | 39.09318 | 3090 ft | 196 kts | 310° |
| 2026-04-29 13:33 | 51.89329 | 39.08252 | 3193 ft | 203 kts | 321° |
| 2026-04-29 13:34 | 51.91042 | 39.06907 | 3558 ft | 206 kts | 342° |
| 2026-04-29 13:34 | 51.92355 | 39.06095 | 3986 ft | 201 kts | 336° |
| 2026-04-29 13:34 | 51.93591 | 39.05062 | 4257 ft | 204 kts | 332° |
| 2026-04-29 13:34 | 51.94844 | 39.03943 | 4567 ft | 205 kts | 332° |
| 2026-04-29 13:35 | 51.96089 | 39.02838 | 4874 ft | 206 kts | 332° |
| 2026-04-29 13:35 | 51.97350 | 39.01717 | 5187 ft | 206 kts | 332° |
| 2026-04-29 13:35 | 51.98615 | 39.00590 | 5498 ft | 207 kts | 332° |
| 2026-04-29 13:35 | 51.99858 | 38.99477 | 5808 ft | 207 kts | 332° |
| 2026-04-29 13:36 | 52.01123 | 38.98348 | 6122 ft | 207 kts | 332° |
| 2026-04-29 13:36 | 52.02378 | 38.97226 | 6427 ft | 208 kts | 332° |
| 2026-04-29 13:36 | 52.03649 | 38.96089 | 6719 ft | 209 kts | 332° |
| 2026-04-29 13:36 | 52.04916 | 38.94966 | 7017 ft | 209 kts | 332° |
| 2026-04-29 13:37 | 52.06208 | 38.93849 | 7317 ft | 209 kts | 333° |
| 2026-04-29 13:37 | 52.07488 | 38.92750 | 7610 ft | 210 kts | 333° |
| 2026-04-29 13:37 | 52.08776 | 38.91643 | 7904 ft | 210 kts | 333° |
| 2026-04-29 13:37 | 52.10066 | 38.90532 | 8197 ft | 210 kts | 333° |
| 2026-04-29 13:38 | 52.11362 | 38.89424 | 8438 ft | 213 kts | 333° |
| 2026-04-29 13:38 | 52.12689 | 38.88305 | 8672 ft | 216 kts | 334° |
| 2026-04-29 13:38 | 52.14111 | 38.87604 | 8942 ft | 216 kts | 353° |
| 2026-04-29 13:38 | 52.14611 | 38.87550 | 9041 ft | 215 kts | 358° |
| 2026-04-29 13:39 | 52.16605 | 38.87706 | 9413 ft | 216 kts | 4° |
| 2026-04-29 13:39 | 52.18092 | 38.87928 | 9656 ft | 218 kts | 6° |
| 2026-04-29 13:39 | 52.19598 | 38.88247 | 9919 ft | 219 kts | 7° |
| 2026-04-29 13:39 | 52.21099 | 38.88609 | 10168 ft | 220 kts | 8° |
| 2026-04-29 13:40 | 52.22609 | 38.88984 | 10420 ft | 221 kts | 8° |
| 2026-04-29 13:40 | 52.23109 | 38.89109 | 10504 ft | 221 kts | 8° |
| 2026-04-29 13:41 | 52.29070 | 38.90613 | 11502 ft | 222 kts | 8° |
| 2026-04-29 13:41 | 52.30596 | 38.90976 | 11765 ft | 222 kts | 6° |
| 2026-04-29 13:41 | 52.32123 | 38.91291 | 12027 ft | 222 kts | 6° |
| 2026-04-29 13:41 | 52.33659 | 38.91597 | 12280 ft | 222 kts | 6° |
| 2026-04-29 13:42 | 52.35178 | 38.91899 | 12530 ft | 222 kts | 6° |
| 2026-04-29 13:42 | 52.36700 | 38.92202 | 12779 ft | 221 kts | 6° |
| 2026-04-29 13:42 | 52.38226 | 38.92327 | 13052 ft | 218 kts | 355° |
| 2026-04-29 13:42 | 52.39716 | 38.91976 | 13350 ft | 215 kts | 349° |
| 2026-04-29 13:43 | 52.41173 | 38.91507 | 13591 ft | 215 kts | 348° |
| 2026-04-29 13:43 | 52.42646 | 38.91043 | 13824 ft | 215 kts | 349° |
| 2026-04-29 13:43 | 52.44123 | 38.90620 | 14051 ft | 215 kts | 350° |
| 2026-04-29 13:43 | 52.45580 | 38.90213 | 14267 ft | 215 kts | 350° |
| 2026-04-29 13:44 | 52.47057 | 38.89803 | 14462 ft | 217 kts | 350° |
| 2026-04-29 13:44 | 52.48557 | 38.89384 | 14612 ft | 219 kts | 350° |
| 2026-04-29 13:44 | 52.50067 | 38.88961 | 14771 ft | 221 kts | 350° |
| 2026-04-29 13:44 | 52.51584 | 38.88535 | 14938 ft | 223 kts | 350° |
| 2026-04-29 13:45 | 52.53118 | 38.88104 | 15109 ft | 223 kts | 350° |
| 2026-04-29 13:45 | 52.54641 | 38.87675 | 15278 ft | 224 kts | 350° |
| 2026-04-29 13:45 | 52.56179 | 38.87241 | 15437 ft | 225 kts | 350° |
| 2026-04-29 13:45 | 52.57726 | 38.86807 | 15568 ft | 227 kts | 350° |
| 2026-04-29 13:46 | 52.59290 | 38.86370 | 15709 ft | 228 kts | 350° |
| 2026-04-29 13:46 | 52.60857 | 38.85934 | 15851 ft | 229 kts | 350° |
| 2026-04-29 13:46 | 52.62429 | 38.85495 | 15948 ft | 232 kts | 350° |
| 2026-04-29 13:46 | 52.64035 | 38.85046 | 16043 ft | 234 kts | 350° |
| 2026-04-29 13:47 | 52.65644 | 38.84573 | 16151 ft | 236 kts | 349° |
| 2026-04-29 13:47 | 52.67280 | 38.84070 | 16110 ft | 242 kts | 349° |
| 2026-04-29 13:47 | 52.68912 | 38.83561 | 16195 ft | 242 kts | 349° |
| 2026-04-29 13:47 | 52.70578 | 38.83038 | 16187 ft | 246 kts | 349° |
| 2026-04-29 13:48 | 52.72283 | 38.82501 | 16141 ft | 250 kts | 349° |
| 2026-04-29 13:48 | 52.73987 | 38.81965 | 16157 ft | 251 kts | 349° |
| 2026-04-29 13:48 | 52.75709 | 38.81424 | 16170 ft | 252 kts | 349° |
| 2026-04-29 13:48 | 52.77426 | 38.80885 | 16159 ft | 254 kts | 349° |
| 2026-04-29 13:49 | 52.79157 | 38.80341 | 16171 ft | 255 kts | 349° |
| 2026-04-29 13:49 | 52.80915 | 38.79790 | 16157 ft | 257 kts | 349° |
| 2026-04-29 13:49 | 52.82658 | 38.79243 | 16171 ft | 257 kts | 349° |
| 2026-04-29 13:49 | 52.84414 | 38.78694 | 16161 ft | 258 kts | 349° |
| 2026-04-29 13:50 | 52.86176 | 38.78142 | 16168 ft | 258 kts | 349° |
| 2026-04-29 13:50 | 52.87952 | 38.77581 | 16167 ft | 259 kts | 349° |
| 2026-04-29 13:50 | 52.89704 | 38.77025 | 16159 ft | 259 kts | 349° |
| 2026-04-29 13:50 | 52.91466 | 38.76465 | 16173 ft | 259 kts | 349° |
| 2026-04-29 13:51 | 52.93243 | 38.75901 | 16155 ft | 260 kts | 349° |
| 2026-04-29 13:51 | 52.95018 | 38.75340 | 16171 ft | 260 kts | 349° |
| 2026-04-29 13:51 | 52.96800 | 38.74779 | 16161 ft | 260 kts | 349° |
| 2026-04-29 13:51 | 52.98566 | 38.74224 | 16165 ft | 260 kts | 349° |
| 2026-04-29 13:52 | 53.00355 | 38.73665 | 16169 ft | 260 kts | 349° |
| 2026-04-29 13:52 | 53.02118 | 38.73119 | 16158 ft | 260 kts | 349° |
| 2026-04-29 13:52 | 53.03901 | 38.72576 | 16173 ft | 260 kts | 349° |
| 2026-04-29 13:52 | 53.05664 | 38.72049 | 16157 ft | 260 kts | 349° |
| 2026-04-29 13:53 | 53.07459 | 38.71521 | 16171 ft | 259 kts | 348° |
| 2026-04-29 13:53 | 53.09232 | 38.70982 | 16166 ft | 260 kts | 348° |
| 2026-04-29 13:53 | 53.11002 | 38.70435 | 16125 ft | 261 kts | 348° |
| 2026-04-29 13:53 | 53.12796 | 38.69891 | 16144 ft | 260 kts | 348° |
| 2026-04-29 13:54 | 53.14558 | 38.69372 | 16209 ft | 257 kts | 348° |
| 2026-04-29 13:54 | 53.16333 | 38.68853 | 16135 ft | 261 kts | 348° |
| 2026-04-29 13:54 | 53.18119 | 38.68330 | 16145 ft | 260 kts | 348° |
| 2026-04-29 13:54 | 53.19893 | 38.67810 | 16215 ft | 257 kts | 348° |
| 2026-04-29 13:55 | 53.21656 | 38.67290 | 16135 ft | 261 kts | 348° |
| 2026-04-29 13:55 | 53.23451 | 38.66713 | 16156 ft | 259 kts | 347° |
| 2026-04-29 13:55 | 53.25185 | 38.66106 | 16206 ft | 257 kts | 346° |
| 2026-04-29 13:55 | 53.26958 | 38.65472 | 16120 ft | 261 kts | 346° |
| 2026-04-29 13:56 | 53.28711 | 38.64862 | 16161 ft | 259 kts | 347° |
| 2026-04-29 13:56 | 53.30474 | 38.64278 | 16204 ft | 258 kts | 347° |
| 2026-04-29 13:56 | 53.32236 | 38.63702 | 16123 ft | 261 kts | 347° |
| 2026-04-29 13:56 | 53.34016 | 38.63121 | 16164 ft | 259 kts | 347° |
| 2026-04-29 13:57 | 53.35767 | 38.62550 | 16208 ft | 257 kts | 347° |
| 2026-04-29 13:57 | 53.37550 | 38.61965 | 16123 ft | 261 kts | 347° |
| 2026-04-29 13:57 | 53.39308 | 38.61385 | 16163 ft | 259 kts | 347° |
| 2026-04-29 13:57 | 53.41072 | 38.60803 | 16208 ft | 257 kts | 347° |
| 2026-04-29 13:58 | 53.42840 | 38.60220 | 16125 ft | 261 kts | 347° |
| 2026-04-29 13:58 | 53.44605 | 38.59640 | 16162 ft | 259 kts | 347° |
| 2026-04-29 13:58 | 53.46374 | 38.59061 | 16210 ft | 257 kts | 347° |
| 2026-04-29 13:58 | 53.48131 | 38.58484 | 16126 ft | 261 kts | 347° |
| 2026-04-29 13:59 | 53.49898 | 38.57901 | 16160 ft | 259 kts | 347° |
| 2026-04-29 13:59 | 53.51664 | 38.57317 | 16211 ft | 257 kts | 347° |
| 2026-04-29 13:59 | 53.53431 | 38.56731 | 16126 ft | 261 kts | 347° |
| 2026-04-29 13:59 | 53.55199 | 38.56144 | 16159 ft | 259 kts | 347° |
| 2026-04-29 14:00 | 53.56944 | 38.55569 | 16212 ft | 257 kts | 347° |
| 2026-04-29 14:00 | 53.58705 | 38.54989 | 16128 ft | 261 kts | 347° |
| 2026-04-29 14:00 | 53.60136 | 38.54517 | 16137 ft | 260 kts | 347° |
| 2026-04-29 14:00 | 53.61749 | 38.53984 | 16212 ft | 257 kts | 347° |
| 2026-04-29 14:01 | 53.63515 | 38.53398 | 16149 ft | 260 kts | 347° |
| 2026-04-29 14:01 | 53.65286 | 38.52806 | 16128 ft | 260 kts | 347° |
| 2026-04-29 14:01 | 53.67036 | 38.52223 | 16209 ft | 257 kts | 347° |
| 2026-04-29 14:01 | 53.68804 | 38.51636 | 16150 ft | 260 kts | 347° |
| 2026-04-29 14:02 | 53.70570 | 38.51049 | 16127 ft | 260 kts | 347° |
| 2026-04-29 14:02 | 53.72338 | 38.50463 | 16213 ft | 257 kts | 347° |
| 2026-04-29 14:02 | 53.74110 | 38.50054 | 16147 ft | 261 kts | 357° |
| 2026-04-29 14:02 | 53.75902 | 38.50479 | 16134 ft | 264 kts | 13° |
| 2026-04-29 14:03 | 53.77620 | 38.51613 | 16127 ft | 266 kts | 21° |
| 2026-04-29 14:03 | 53.79303 | 38.52954 | 16071 ft | 268 kts | 22° |
| 2026-04-29 14:03 | 53.80951 | 38.54291 | 16155 ft | 264 kts | 22° |
| 2026-04-29 14:03 | 53.82611 | 38.55647 | 16155 ft | 265 kts | 22° |
| 2026-04-29 14:04 | 53.84280 | 38.57012 | 16082 ft | 267 kts | 22° |
| 2026-04-29 14:04 | 53.85926 | 38.58361 | 16155 ft | 264 kts | 22° |
| 2026-04-29 14:04 | 53.87579 | 38.59716 | 16158 ft | 264 kts | 22° |
| 2026-04-29 14:04 | 53.89240 | 38.61074 | 16084 ft | 267 kts | 22° |
| 2026-04-29 14:05 | 53.90907 | 38.62437 | 16154 ft | 263 kts | 22° |
| 2026-04-29 14:05 | 53.92542 | 38.63777 | 16160 ft | 264 kts | 22° |
| 2026-04-29 14:05 | 53.94204 | 38.65141 | 16087 ft | 266 kts | 22° |
| 2026-04-29 14:05 | 53.95866 | 38.66508 | 16152 ft | 263 kts | 22° |
| 2026-04-29 14:06 | 53.97500 | 38.67857 | 16164 ft | 264 kts | 22° |
| 2026-04-29 14:06 | 53.99143 | 38.69214 | 16088 ft | 266 kts | 22° |
| 2026-04-29 14:06 | 54.00799 | 38.70578 | 16148 ft | 263 kts | 22° |
| 2026-04-29 14:06 | 54.02459 | 38.71947 | 16165 ft | 263 kts | 22° |
| 2026-04-29 14:07 | 54.04129 | 38.73325 | 16087 ft | 266 kts | 22° |
| 2026-04-29 14:07 | 54.05824 | 38.74726 | 16149 ft | 263 kts | 22° |
| 2026-04-29 14:07 | 54.07470 | 38.76091 | 16166 ft | 263 kts | 22° |
| 2026-04-29 14:07 | 54.09119 | 38.77453 | 16088 ft | 266 kts | 22° |
| 2026-04-29 14:08 | 54.10773 | 38.78823 | 16130 ft | 264 kts | 22° |
| 2026-04-29 14:08 | 54.12432 | 38.80184 | 16116 ft | 265 kts | 22° |
| 2026-04-29 14:08 | 54.14088 | 38.81537 | 16137 ft | 264 kts | 22° |
| 2026-04-29 14:08 | 54.15764 | 38.82905 | 16128 ft | 265 kts | 22° |
| 2026-04-29 14:09 | 54.17488 | 38.84314 | 16139 ft | 264 kts | 22° |
| 2026-04-29 14:09 | 54.19200 | 38.85717 | 16132 ft | 265 kts | 22° |
| 2026-04-29 14:09 | 54.20904 | 38.87114 | 16138 ft | 264 kts | 22° |
| 2026-04-29 14:09 | 54.22635 | 38.88320 | 16164 ft | 260 kts | 12° |
| 2026-04-29 14:10 | 54.23867 | 38.88657 | 16176 ft | 257 kts | 0° |
| 2026-04-29 14:10 | 54.25683 | 38.88370 | 16090 ft | 257 kts | 344° |
| 2026-04-29 14:10 | 54.27964 | 38.86877 | 16147 ft | 254 kts | 334° |
| 2026-04-29 14:10 | 54.29051 | 38.85990 | 16131 ft | 254 kts | 333° |
| 2026-04-29 14:11 | 54.31200 | 38.84159 | 16106 ft | 255 kts | 332° |
| 2026-04-29 14:11 | 54.32801 | 38.82772 | 16116 ft | 250 kts | 332° |
| 2026-04-29 14:11 | 54.34324 | 38.81450 | 16077 ft | 244 kts | 332° |
| 2026-04-29 14:11 | 54.35898 | 38.80085 | 15954 ft | 242 kts | 332° |
| 2026-04-29 14:12 | 54.37456 | 38.78735 | 15827 ft | 240 kts | 332° |
| 2026-04-29 14:12 | 54.38965 | 38.77430 | 15702 ft | 239 kts | 332° |
| 2026-04-29 14:12 | 54.40453 | 38.76139 | 15577 ft | 238 kts | 332° |
| 2026-04-29 14:12 | 54.41960 | 38.74829 | 15468 ft | 236 kts | 332° |
| 2026-04-29 14:13 | 54.43409 | 38.73571 | 15374 ft | 235 kts | 332° |
| 2026-04-29 14:13 | 54.44876 | 38.72301 | 15277 ft | 233 kts | 332° |
| 2026-04-29 14:13 | 54.46391 | 38.70988 | 15174 ft | 232 kts | 332° |
| 2026-04-29 14:13 | 54.47915 | 38.69666 | 15071 ft | 231 kts | 332° |
| 2026-04-29 14:14 | 54.49390 | 38.68382 | 14969 ft | 230 kts | 332° |
| 2026-04-29 14:14 | 54.50859 | 38.67104 | 14868 ft | 230 kts | 332° |
| 2026-04-29 14:14 | 54.52365 | 38.65796 | 14764 ft | 229 kts | 332° |
| 2026-04-29 14:14 | 54.53808 | 38.64538 | 14668 ft | 229 kts | 332° |
| 2026-04-29 14:15 | 54.55262 | 38.63272 | 14571 ft | 228 kts | 332° |
| 2026-04-29 14:15 | 54.56749 | 38.61976 | 14474 ft | 228 kts | 332° |
| 2026-04-29 14:15 | 54.58206 | 38.60704 | 14384 ft | 228 kts | 332° |
| 2026-04-29 14:15 | 54.59651 | 38.59444 | 14292 ft | 227 kts | 332° |
| 2026-04-29 14:16 | 54.61069 | 38.58207 | 14205 ft | 227 kts | 332° |
| 2026-04-29 14:16 | 54.62513 | 38.56943 | 14122 ft | 227 kts | 332° |
| 2026-04-29 14:16 | 54.64013 | 38.55635 | 14031 ft | 226 kts | 332° |
| 2026-04-29 14:16 | 54.65535 | 38.54304 | 13942 ft | 226 kts | 332° |
| 2026-04-29 14:17 | 54.67069 | 38.52959 | 13856 ft | 226 kts | 332° |
| 2026-04-29 14:17 | 54.68612 | 38.51609 | 13768 ft | 225 kts | 332° |
| 2026-04-29 14:17 | 54.70013 | 38.50383 | 13691 ft | 225 kts | 332° |
| 2026-04-29 14:17 | 54.71401 | 38.49170 | 13618 ft | 225 kts | 332° |
| 2026-04-29 14:18 | 54.72799 | 38.47950 | 13547 ft | 225 kts | 332° |
| 2026-04-29 14:18 | 54.74206 | 38.46718 | 13475 ft | 225 kts | 332° |
| 2026-04-29 14:18 | 54.75633 | 38.45622 | 13422 ft | 224 kts | 342° |
| 2026-04-29 14:18 | 54.77175 | 38.45256 | 13414 ft | 224 kts | 357° |
| 2026-04-29 14:19 | 54.78701 | 38.45665 | 13379 ft | 226 kts | 14° |
| 2026-04-29 14:19 | 54.80232 | 38.46735 | 13303 ft | 227 kts | 21° |
| 2026-04-29 14:19 | 54.81691 | 38.47930 | 13054 ft | 226 kts | 22° |
| 2026-04-29 14:19 | 54.83105 | 38.49101 | 12809 ft | 224 kts | 22° |
| 2026-04-29 14:20 | 54.84580 | 38.50305 | 12594 ft | 221 kts | 21° |
| 2026-04-29 14:20 | 54.86091 | 38.51537 | 12368 ft | 218 kts | 21° |
| 2026-04-29 14:20 | 54.87573 | 38.52713 | 12148 ft | 216 kts | 21° |
| 2026-04-29 14:20 | 54.89069 | 38.53885 | 11915 ft | 214 kts | 21° |
| 2026-04-29 14:21 | 54.90510 | 38.55008 | 11688 ft | 213 kts | 20° |
| 2026-04-29 14:21 | 54.91874 | 38.56040 | 11479 ft | 211 kts | 20° |
| 2026-04-29 14:21 | 54.93212 | 38.57037 | 11266 ft | 210 kts | 20° |
| 2026-04-29 14:21 | 54.94552 | 38.58032 | 11052 ft | 210 kts | 20° |
| 2026-04-29 14:22 | 54.95905 | 38.59037 | 10835 ft | 209 kts | 20° |
| 2026-04-29 14:22 | 54.97235 | 38.60024 | 10624 ft | 208 kts | 20° |
| 2026-04-29 14:22 | 54.98553 | 38.61002 | 10416 ft | 208 kts | 20° |
| 2026-04-29 14:22 | 54.99873 | 38.61982 | 10207 ft | 207 kts | 20° |
| 2026-04-29 14:23 | 55.01256 | 38.63004 | 9974 ft | 207 kts | 20° |
| 2026-04-29 14:23 | 55.02615 | 38.64004 | 9740 ft | 208 kts | 20° |
| 2026-04-29 14:23 | 55.03959 | 38.64993 | 9513 ft | 208 kts | 20° |
| 2026-04-29 14:23 | 55.05305 | 38.65982 | 9290 ft | 208 kts | 20° |
| 2026-04-29 14:24 | 55.06643 | 38.66964 | 9073 ft | 207 kts | 20° |
| 2026-04-29 14:24 | 55.07958 | 38.67929 | 8862 ft | 207 kts | 20° |
| 2026-04-29 14:24 | 55.09292 | 38.68908 | 8650 ft | 206 kts | 20° |
| 2026-04-29 14:24 | 55.10610 | 38.69872 | 8429 ft | 206 kts | 19° |
| 2026-04-29 14:25 | 55.11945 | 38.70835 | 8151 ft | 209 kts | 19° |
| 2026-04-29 14:25 | 55.13298 | 38.71824 | 7883 ft | 211 kts | 20° |
| 2026-04-29 14:25 | 55.14654 | 38.72841 | 7621 ft | 212 kts | 20° |
| 2026-04-29 14:25 | 55.16016 | 38.73866 | 7364 ft | 213 kts | 20° |
| 2026-04-29 14:26 | 55.17406 | 38.74908 | 7109 ft | 213 kts | 20° |
| 2026-04-29 14:26 | 55.18893 | 38.76027 | 6883 ft | 211 kts | 20° |
| 2026-04-29 14:26 | 55.20364 | 38.77136 | 6667 ft | 209 kts | 20° |
| 2026-04-29 14:26 | 55.21882 | 38.77909 | 6472 ft | 202 kts | 2° |
| 2026-04-29 14:27 | 55.23321 | 38.77623 | 6307 ft | 195 kts | 340° |
| 2026-04-29 14:27 | 55.24476 | 38.76491 | 6148 ft | 191 kts | 319° |
| 2026-04-29 14:27 | 55.25433 | 38.74738 | 5990 ft | 188 kts | 310° |
| 2026-04-29 14:28 | 55.27069 | 38.71125 | 5657 ft | 185 kts | 309° |
| 2026-04-29 14:28 | 55.27865 | 38.69363 | 5511 ft | 183 kts | 310° |
| 2026-04-29 14:28 | 55.28686 | 38.67672 | 5365 ft | 181 kts | 311° |
| 2026-04-29 14:28 | 55.29522 | 38.65996 | 5207 ft | 180 kts | 311° |
| 2026-04-29 14:29 | 55.30358 | 38.64324 | 5046 ft | 180 kts | 311° |
| 2026-04-29 14:29 | 55.31167 | 38.62700 | 4891 ft | 179 kts | 311° |
| 2026-04-29 14:29 | 55.31996 | 38.61057 | 4738 ft | 178 kts | 313° |
| 2026-04-29 14:29 | 55.32855 | 38.59392 | 4602 ft | 176 kts | 313° |
| 2026-04-29 14:30 | 55.33694 | 38.57767 | 4465 ft | 174 kts | 313° |
| 2026-04-29 14:30 | 55.34524 | 38.56160 | 4326 ft | 173 kts | 313° |
| 2026-04-29 14:30 | 55.35323 | 38.54585 | 4192 ft | 172 kts | 312° |
| 2026-04-29 14:30 | 55.36103 | 38.53016 | 4071 ft | 170 kts | 311° |
| 2026-04-29 14:31 | 55.36936 | 38.51335 | 3942 ft | 168 kts | 311° |
| 2026-04-29 14:31 | 55.37719 | 38.49752 | 3816 ft | 167 kts | 311° |
| 2026-04-29 14:31 | 55.38511 | 38.48151 | 3729 ft | 163 kts | 311° |
| 2026-04-29 14:31 | 55.39267 | 38.46622 | 3640 ft | 160 kts | 311° |
| 2026-04-29 14:32 | 55.40033 | 38.45071 | 3538 ft | 158 kts | 311° |
| 2026-04-29 14:32 | 55.40776 | 38.43563 | 3474 ft | 153 kts | 311° |
| 2026-04-29 14:32 | 55.41452 | 38.42192 | 3463 ft | 146 kts | 311° |
| 2026-04-29 14:32 | 55.42130 | 38.40815 | 3409 ft | 142 kts | 311° |
| 2026-04-29 14:33 | 55.42812 | 38.39433 | 3304 ft | 136 kts | 311° |
| 2026-04-29 14:33 | 55.43448 | 38.38144 | 3177 ft | 131 kts | 311° |
| 2026-04-29 14:33 | 55.44073 | 38.36874 | 3016 ft | 127 kts | 311° |
| 2026-04-29 14:33 | 55.44652 | 38.35696 | 2865 ft | 123 kts | 311° |
| 2026-04-29 14:34 | 55.45206 | 38.34568 | 2727 ft | 119 kts | 310° |
| 2026-04-29 14:34 | 55.45740 | 38.33481 | 2565 ft | 118 kts | 313° |
| 2026-04-29 14:34 | 55.46288 | 38.32394 | 2408 ft | 117 kts | 311° |
| 2026-04-29 14:34 | 55.46823 | 38.31319 | 2264 ft | 115 kts | 312° |
| 2026-04-29 14:35 | 55.47339 | 38.30291 | 2142 ft | 111 kts | 312° |
| 2026-04-29 14:35 | 55.47863 | 38.29269 | 1994 ft | 113 kts | 313° |
| 2026-04-29 14:35 | 55.48391 | 38.28274 | 1921 ft | 109 kts | 312° |
| 2026-04-29 14:35 | 55.48903 | 38.27283 | 1806 ft | 109 kts | 312° |
| 2026-04-29 14:36 | 55.49404 | 38.26310 | 1689 ft | 107 kts | 313° |
| 2026-04-29 14:36 | 55.49910 | 38.25332 | 1539 ft | 109 kts | 313° |
| 2026-04-29 14:36 | 55.50423 | 38.24340 | 1398 ft | 107 kts | 313° |
| 2026-04-29 14:36 | 55.50915 | 38.23386 | 1237 ft | 106 kts | 313° |
| 2026-04-29 14:37 | 55.51408 | 38.22439 | 1070 ft | 104 kts | 313° |
| 2026-04-29 14:37 | 55.51891 | 38.21517 | 937 ft | 98 kts | 314° |
| 2026-04-29 14:37 | 55.52359 | 38.20669 | 764 ft | 96 kts | 315° |
| 2026-04-29 14:37 | 55.52825 | 38.19833 | 653 ft | 95 kts | 314° |
| 2026-04-29 14:38 | 55.53272 | 38.18966 | 554 ft | 97 kts | 312° |
| 2026-04-29 14:38 | 55.53735 | 38.18050 | 432 ft | 99 kts | 313° |
| 2026-04-29 14:38 | 55.54183 | 38.17171 | 403 ft | 93 kts | 312° |
| 2026-04-29 14:38 | 55.54589 | 38.16376 | 385 ft | 77 kts | 310° |
| 2026-04-29 14:39 | 55.54858 | 38.15834 | 385 ft | 43 kts | 311° |
| 2026-04-29 14:39 | 55.55008 | 38.15528 | 385 ft | 23 kts | 313° |
| 2026-04-29 14:39 | 55.55086 | 38.15373 | 385 ft | 10 kts | 310° |
| 2026-04-29 14:39 | 55.55136 | 38.15271 | 385 ft | 16 kts | 311° |
| 2026-04-29 14:40 | 55.55215 | 38.15116 | 385 ft | 12 kts | 312° |
| 2026-04-29 14:40 | 55.55272 | 38.15002 | 385 ft | 16 kts | 311° |
| 2026-04-29 14:40 | 55.55327 | 38.14896 | 385 ft | 6 kts | 313° |
| 2026-04-29 14:40 | 55.55381 | 38.14789 | 385 ft | 14 kts | 311° |
| 2026-04-29 14:41 | 55.55459 | 38.14634 | 385 ft | 17 kts | 311° |
| 2026-04-29 14:41 | 55.55525 | 38.14502 | 385 ft | 9 kts | 311° |
| 2026-04-29 14:41 | 55.55572 | 38.14409 | 385 ft | 10 kts | 311° |
| 2026-04-29 14:41 | 55.55592 | 38.14314 | 385 ft | 8 kts | 252° |
| 2026-04-29 14:42 | 55.55563 | 38.14251 | 385 ft | 10 kts | 221° |
| 2026-04-29 14:42 | 55.55534 | 38.14206 | 385 ft | 1 kts | 222° |
| 2026-04-29 14:42 | 55.55505 | 38.14159 | 385 ft | 6 kts | 222° |
| 2026-04-29 14:42 | 55.55478 | 38.14101 | 385 ft | 7 kts | 248° |
| 2026-04-29 14:43 | 55.55494 | 38.13998 | 385 ft | 10 kts | 308° |
| 2026-04-29 14:43 | 55.55548 | 38.13888 | 385 ft | 8 kts | 312° |
| 2026-04-29 14:43 | 55.55597 | 38.13793 | 385 ft | 11 kts | 311° |
| 2026-04-29 14:43 | 55.55653 | 38.13680 | 385 ft | 12 kts | 311° |
| 2026-04-29 14:44 | 55.55712 | 38.13563 | 385 ft | 10 kts | 312° |
| 2026-04-29 14:44 | 55.55753 | 38.13483 | 385 ft | 9 kts | 312° |
| 2026-04-29 14:44 | 55.55788 | 38.13414 | 385 ft | 10 kts | 311° |
| 2026-04-29 14:44 | 55.55839 | 38.13312 | 385 ft | 11 kts | 311° |
| 2026-04-29 14:45 | 55.55889 | 38.13213 | 385 ft | 8 kts | 311° |
| 2026-04-29 14:45 | 55.55940 | 38.13112 | 385 ft | 9 kts | 311° |
| 2026-04-29 14:45 | 55.55983 | 38.13025 | 385 ft | 9 kts | 311° |
| 2026-04-29 14:45 | 55.56028 | 38.12936 | 385 ft | 7 kts | 311° |
| 2026-04-29 14:46 | 55.56072 | 38.12847 | 385 ft | 7 kts | 307° |
| 2026-04-29 14:46 | 55.56095 | 38.12760 | 385 ft | 4 kts | 292° |
| 2026-04-29 14:46 | 55.56111 | 38.12708 | 385 ft | 6 kts | 306° |
| 2026-04-29 14:46 | 55.56138 | 38.12651 | 385 ft | 4 kts | 312° |
| 2026-04-29 14:47 | 55.56161 | 38.12608 | 385 ft | 7 kts | 312° |
| 2026-04-29 14:47 | 55.56186 | 38.12538 | 385 ft | 6 kts | 275° |
| 2026-04-29 14:47 | 55.56170 | 38.12472 | 385 ft | 5 kts | 226° |
| 2026-04-29 14:47 | 55.56156 | 38.12448 | 385 ft | 6 kts | 224° |
| 2026-04-29 14:48 | 55.56115 | 38.12383 | 385 ft | 5 kts | 214° |
| 2026-04-29 14:48 | 55.56093 | 38.12369 | 385 ft | 1 kts | 185° |
| 2026-04-29 14:48 | 55.56081 | 38.12371 | 385 ft | 0 kts | 165° |
| 2026-04-29 14:48 | 55.56072 | 38.12379 | 385 ft | 1 kts | 147° |
| 2026-04-29 14:49 | 55.56059 | 38.12400 | 385 ft | 2 kts | 131° |
| 2026-04-29 14:49 | 55.56046 | 38.12428 | 385 ft | 0 kts | 130° |
| 2026-04-29 14:49 | 55.56036 | 38.12446 | 385 ft | 2 kts | 131° |
| 2026-04-29 14:49 | 55.56034 | 38.12450 | 385 ft | 0 kts | 131° |